Time;durP1;ratioP1;P1;durP2;ratioP2;P2;SDS_P1;SDS_P2;PMS_P1;PMS_P2;Temp;Humidity;BMP_temperature;BMP_pressure;BME280_temperature;BME280_humidity;BME280_pressure;Samples;Min_cycle;Max_cycle;Signal;HPM_P1;HPM_P2
2022/03/02 00:01:36;;;;;;;75.60;55.70;;;17.50;49.20;;;;;;4987409;28;90736;-71
2022/03/02 00:04:02;;;;;;;73.43;54.65;;;17.50;49.30;;;;;;4987950;28;94891;-71
2022/03/02 00:06:27;;;;;;;73.88;54.33;;;17.50;49.30;;;;;;4987440;28;90101;-72
2022/03/02 00:08:53;;;;;;;73.55;54.17;;;17.40;49.30;;;;;;4989524;28;90565;-71
2022/03/02 00:11:18;;;;;;;73.47;54.65;;;17.40;49.40;;;;;;4987993;28;90937;-71
2022/03/02 00:13:45;;;;;;;72.90;54.05;;;17.40;49.40;;;;;;4992347;28;90762;-71
2022/03/02 00:16:11;;;;;;;75.30;54.95;;;17.40;49.40;;;;;;4982474;28;89292;-71
2022/03/02 00:18:37;;;;;;;73.78;54.90;;;17.30;49.40;;;;;;4989262;28;90286;-72
2022/03/02 00:21:02;;;;;;;74.55;54.30;;;17.40;49.40;;;;;;4984902;28;90409;-71
2022/03/02 00:23:29;;;;;;;73.85;54.75;;;17.40;49.50;;;;;;4994267;28;91422;-71
2022/03/02 00:25:55;;;;;;;72.35;53.58;;;17.30;49.50;;;;;;5007680;27;90407;-71
2022/03/02 00:28:21;;;;;;;73.07;54.53;;;17.30;49.50;;;;;;4995585;28;91786;-71
2022/03/02 00:30:46;;;;;;;73.25;54.97;;;17.30;49.50;;;;;;4988031;28;91184;-71
2022/03/02 00:33:12;;;;;;;74.88;55.13;;;17.30;49.50;;;;;;4985826;28;89911;-71
2022/03/02 00:35:38;;;;;;;76.28;55.53;;;17.20;49.60;;;;;;5010246;27;89805;-71
2022/03/02 00:38:06;;;;;;;75.93;55.85;;;17.20;49.60;;;;;;4986845;28;91298;-71
2022/03/02 00:40:33;;;;;;;74.25;55.70;;;17.20;49.70;;;;;;4990632;28;94761;-71
2022/03/02 00:42:58;;;;;;;74.65;54.70;;;17.20;49.70;;;;;;4986405;28;90343;-72
2022/03/02 00:45:25;;;;;;;74.07;55.25;;;17.20;49.70;;;;;;4992939;28;89678;-71
2022/03/02 00:47:51;;;;;;;76.47;56.63;;;17.10;49.70;;;;;;4981613;28;91824;-71
2022/03/02 00:50:17;;;;;;;73.75;54.58;;;17.10;49.80;;;;;;4989420;28;89861;-71
2022/03/02 00:52:43;;;;;;;71.78;53.60;;;17.10;49.80;;;;;;4992095;28;89820;-71
2022/03/02 00:55:09;;;;;;;73.03;54.67;;;17.10;49.80;;;;;;4993375;28;90071;-71
2022/03/02 00:57:35;;;;;;;75.50;56.20;;;17.00;49.80;;;;;;4982432;28;90723;-71
2022/03/02 01:00:01;;;;;;;76.85;55.78;;;17.10;50.00;;;;;;4989108;28;90055;-71
2022/03/02 01:02:26;;;;;;;74.47;54.80;;;17.10;50.20;;;;;;4983004;28;90314;-71
2022/03/02 01:04:52;;;;;;;73.20;54.35;;;17.10;50.00;;;;;;4988811;28;89294;-71
2022/03/02 01:07:18;;;;;;;77.22;55.72;;;17.20;50.00;;;;;;4991855;28;90344;-71
2022/03/02 01:09:43;;;;;;;75.35;55.25;;;17.20;50.00;;;;;;4989154;28;90921;-71
2022/03/02 01:12:09;;;;;;;75.28;56.08;;;17.30;49.90;;;;;;4986014;28;90965;-71
2022/03/02 01:14:34;;;;;;;78.03;57.20;;;17.30;49.70;;;;;;4988463;28;90393;-71
2022/03/02 01:17:00;;;;;;;75.85;56.13;;;17.30;49.60;;;;;;4982064;28;90256;-71
2022/03/02 01:19:26;;;;;;;74.70;54.28;;;17.40;49.70;;;;;;4992067;28;90910;-71
2022/03/02 01:21:52;;;;;;;72.40;54.15;;;17.40;49.50;;;;;;4983214;28;90776;-72
2022/03/02 01:24:17;;;;;;;76.93;56.50;;;17.40;49.30;;;;;;4989730;28;90261;-71
2022/03/02 01:26:46;;;;;;;72.82;54.47;;;17.50;49.40;;;;;;4985050;28;90130;-71
2022/03/02 01:29:11;;;;;;;75.53;55.03;;;17.50;49.30;;;;;;4985395;28;89691;-71
2022/03/02 01:31:37;;;;;;;73.72;55.17;;;17.50;49.10;;;;;;4989571;28;90672;-71
2022/03/02 01:34:03;;;;;;;75.85;56.63;;;17.50;49.20;;;;;;4988832;28;89951;-71
2022/03/02 01:36:28;;;;;;;75.35;55.00;;;17.50;49.10;;;;;;4984216;28;90993;-71
2022/03/02 01:38:54;;;;;;;76.57;55.95;;;17.60;49.20;;;;;;4981913;28;92400;-71
2022/03/02 01:41:22;;;;;;;73.90;54.92;;;17.60;49.20;;;;;;4978463;28;91993;-71
2022/03/02 01:43:49;;;;;;;74.78;55.53;;;17.60;49.10;;;;;;4986331;28;89940;-71
2022/03/02 01:46:16;;;;;;;74.47;54.92;;;17.50;49.10;;;;;;4989664;28;91172;-71
2022/03/02 01:48:42;;;;;;;75.97;55.33;;;17.50;49.10;;;;;;4988662;28;91130;-71
2022/03/02 01:51:08;;;;;;;75.60;55.60;;;17.50;49.10;;;;;;4990544;28;90007;-71
2022/03/02 01:53:33;;;;;;;74.32;54.55;;;17.50;49.00;;;;;;4984162;28;89854;-71
2022/03/02 01:56:00;;;;;;;74.32;54.67;;;17.50;49.00;;;;;;4986713;28;90664;-71
2022/03/02 01:58:27;;;;;;;74.70;55.97;;;17.50;49.10;;;;;;4988793;28;89481;-71
2022/03/02 02:00:53;;;;;;;72.38;54.15;;;17.50;49.10;;;;;;4987537;28;91377;-71
2022/03/02 02:03:19;;;;;;;74.82;55.53;;;17.40;49.10;;;;;;4989188;28;90235;-72
2022/03/02 02:05:45;;;;;;;75.20;55.88;;;17.40;49.20;;;;;;4991129;28;90190;-71
2022/03/02 02:08:11;;;;;;;75.93;56.42;;;17.40;49.20;;;;;;4983785;28;89843;-71
2022/03/02 02:10:37;;;;;;;75.47;56.10;;;17.40;49.20;;;;;;4985961;28;90490;-71
2022/03/02 02:13:03;;;;;;;73.30;55.03;;;17.40;49.20;;;;;;4985270;28;89993;-72
2022/03/02 02:15:29;;;;;;;72.35;53.80;;;17.30;49.20;;;;;;4992041;28;90043;-71
2022/03/02 02:17:56;;;;;;;75.22;55.20;;;17.30;49.20;;;;;;4982972;28;89732;-71
2022/03/02 02:20:23;;;;;;;73.90;53.88;;;17.30;49.30;;;;;;4987787;28;90802;-71
2022/03/02 02:22:50;;;;;;;76.10;56.05;;;17.30;49.30;;;;;;4986004;28;89890;-72
2022/03/02 02:25:16;;;;;;;76.20;54.55;;;17.30;49.30;;;;;;4984892;28;91198;-71
2022/03/02 02:27:46;;;;;;;73.60;54.65;;;17.30;49.50;;;;;;4991299;28;90778;-71
2022/03/02 02:30:13;;;;;;;74.93;54.88;;;17.20;49.40;;;;;;4982464;28;91918;-72
2022/03/02 02:32:39;;;;;;;73.35;54.47;;;17.20;49.50;;;;;;4985112;28;90212;-71
2022/03/02 02:35:08;;;;;;;72.68;54.25;;;17.10;49.50;;;;;;4989726;28;90302;-71
2022/03/02 02:37:35;;;;;;;72.63;53.97;;;17.20;49.60;;;;;;4988894;28;91039;-71
2022/03/02 02:40:05;;;;;;;74.05;55.42;;;17.20;49.60;;;;;;4996331;27;90637;-71
2022/03/02 02:42:30;;;;;;;74.88;55.45;;;17.10;49.60;;;;;;5005729;27;89379;-71
2022/03/02 02:44:56;;;;;;;76.28;56.25;;;17.10;49.70;;;;;;4985918;28;90504;-71
2022/03/02 02:47:22;;;;;;;72.55;54.30;;;17.10;49.60;;;;;;4994025;28;90150;-71
2022/03/02 02:49:48;;;;;;;74.75;56.35;;;17.10;49.60;;;;;;4980387;28;91379;-71
2022/03/02 02:52:14;;;;;;;74.65;55.92;;;17.10;49.60;;;;;;4989850;28;92916;-71
2022/03/02 02:54:41;;;;;;;72.93;55.28;;;17.00;49.60;;;;;;4983291;28;90299;-71
2022/03/02 02:57:07;;;;;;;74.75;55.72;;;17.00;49.70;;;;;;4991550;28;90811;-71
2022/03/02 02:59:33;;;;;;;74.88;54.83;;;17.00;49.70;;;;;;4990512;28;92464;-71
2022/03/02 03:01:59;;;;;;;72.55;54.40;;;17.00;49.80;;;;;;4990117;28;91320;-71
2022/03/02 03:04:24;;;;;;;72.80;54.55;;;17.00;49.80;;;;;;4988701;28;90176;-71
2022/03/02 03:06:50;;;;;;;74.55;55.53;;;16.90;49.70;;;;;;4984458;28;94877;-71
2022/03/02 03:09:16;;;;;;;73.47;54.92;;;17.00;49.80;;;;;;4981196;28;89825;-71
2022/03/02 03:11:42;;;;;;;73.43;54.78;;;16.90;49.70;;;;;;4989488;28;89987;-71
2022/03/02 03:14:12;;;;;;;74.45;55.08;;;16.90;49.80;;;;;;4991392;28;91534;-71
2022/03/02 03:16:42;;;;;;;74.80;55.65;;;16.90;49.90;;;;;;4988715;28;92685;-71
2022/03/02 03:19:08;;;;;;;74.55;56.15;;;16.90;49.90;;;;;;4984340;28;92630;-71
2022/03/02 03:21:34;;;;;;;74.20;55.83;;;16.90;50.00;;;;;;4993350;28;91092;-71
2022/03/02 03:24:00;;;;;;;74.75;55.40;;;17.00;49.90;;;;;;4999712;27;95106;-71
2022/03/02 03:26:26;;;;;;;71.70;54.28;;;17.00;49.80;;;;;;4987753;28;90286;-71
2022/03/02 03:28:52;;;;;;;75.85;56.75;;;17.00;49.90;;;;;;4986566;28;90189;-71
2022/03/02 03:31:17;;;;;;;74.28;55.47;;;17.10;49.70;;;;;;4987169;28;88733;-71
2022/03/02 03:33:43;;;;;;;77.03;55.28;;;17.10;49.60;;;;;;4982686;28;90815;-71
2022/03/02 03:36:09;;;;;;;73.85;55.28;;;17.10;49.60;;;;;;4989452;28;91028;-71
2022/03/02 03:38:35;;;;;;;76.03;56.42;;;17.10;49.70;;;;;;4980597;28;91032;-71
2022/03/02 03:41:00;;;;;;;77.40;57.40;;;17.10;49.60;;;;;;4987996;28;89526;-71
2022/03/02 03:43:26;;;;;;;74.47;55.50;;;17.10;49.60;;;;;;4983840;28;90508;-71
2022/03/02 03:45:52;;;;;;;75.38;55.35;;;17.10;49.50;;;;;;4992815;28;89901;-71
2022/03/02 03:48:18;;;;;;;73.88;55.28;;;17.10;49.50;;;;;;5007228;28;92890;-71
2022/03/02 03:50:44;;;;;;;73.35;55.28;;;17.10;49.50;;;;;;4981438;28;93030;-72
2022/03/02 03:53:13;;;;;;;73.35;55.15;;;17.10;49.50;;;;;;4988757;28;93073;-71
2022/03/02 03:55:39;;;;;;;73.75;55.83;;;17.10;49.50;;;;;;4990507;28;92949;-71
2022/03/02 03:58:05;;;;;;;72.70;54.47;;;17.10;49.50;;;;;;4993580;28;91541;-71
2022/03/02 04:00:31;;;;;;;72.82;54.03;;;17.10;49.50;;;;;;4989675;28;94595;-71
2022/03/02 04:02:57;;;;;;;74.03;55.83;;;17.10;49.50;;;;;;4986537;28;90795;-71
2022/03/02 04:05:22;;;;;;;73.00;54.47;;;17.10;49.50;;;;;;4991973;28;90823;-71
2022/03/02 04:07:48;;;;;;;73.10;54.67;;;17.10;49.70;;;;;;4988579;28;90575;-72
2022/03/02 04:10:15;;;;;;;73.30;54.92;;;17.00;49.60;;;;;;4988193;28;91739;-71
2022/03/02 04:12:42;;;;;;;73.45;54.67;;;17.00;49.60;;;;;;4991196;28;94869;-71
2022/03/02 04:15:08;;;;;;;73.40;54.75;;;17.00;49.60;;;;;;4994982;28;89681;-71
2022/03/02 04:17:34;;;;;;;72.75;54.05;;;17.00;49.80;;;;;;4993453;28;90383;-71
2022/03/02 04:19:59;;;;;;;72.70;54.65;;;17.00;49.70;;;;;;4988773;28;89129;-71
2022/03/02 04:22:25;;;;;;;74.22;55.08;;;17.00;49.70;;;;;;5008927;27;92786;-71
2022/03/02 04:24:51;;;;;;;73.38;54.58;;;17.00;49.80;;;;;;4986584;28;91522;-71
2022/03/02 04:27:17;;;;;;;76.75;57.45;;;17.00;49.70;;;;;;4993455;28;91803;-71
2022/03/02 04:29:43;;;;;;;75.88;56.83;;;16.90;49.70;;;;;;4987261;28;89950;-71
2022/03/02 04:32:09;;;;;;;73.45;55.38;;;16.90;49.80;;;;;;4993390;28;89794;-71
2022/03/02 04:34:34;;;;;;;73.53;55.22;;;16.90;49.90;;;;;;4992737;28;92556;-71
2022/03/02 04:37:00;;;;;;;75.43;56.00;;;16.90;50.10;;;;;;4989881;28;89944;-71
2022/03/02 04:39:26;;;;;;;73.72;55.50;;;16.90;50.00;;;;;;4991859;28;91813;-71
2022/03/02 04:41:52;;;;;;;73.50;55.47;;;16.90;50.50;;;;;;4994371;28;90438;-71
2022/03/02 04:44:17;;;;;;;72.78;54.00;;;17.00;49.80;;;;;;4992270;28;89027;-71
2022/03/02 04:46:48;;;;;;;75.28;56.45;;;17.00;49.80;;;;;;4984933;28;90854;-71
2022/03/02 04:49:17;;;;;;;76.25;55.92;;;17.00;49.70;;;;;;4988101;28;90424;-71
2022/03/02 04:51:44;;;;;;;75.22;56.55;;;17.10;49.70;;;;;;4989729;28;91754;-71
2022/03/02 04:55:05;;;;;;;74.80;56.35;;;17.10;49.60;;;;;;4989227;28;90887;-71
2022/03/02 04:56:55;;;;;;;75.18;57.10;;;17.10;49.60;;;;;;4986495;28;94647;-71
2022/03/02 04:59:21;;;;;;;77.72;57.67;;;17.10;49.70;;;;;;4989865;28;89987;-72
2022/03/02 05:01:46;;;;;;;78.60;56.50;;;17.10;49.70;;;;;;4986010;28;90371;-71
2022/03/02 05:04:12;;;;;;;76.70;56.20;;;17.20;49.60;;;;;;4992400;28;89793;-71
2022/03/02 05:06:37;;;;;;;75.78;57.10;;;17.20;49.60;;;;;;4983623;28;89784;-71
2022/03/02 05:09:03;;;;;;;75.45;55.35;;;17.30;49.50;;;;;;4986441;28;89247;-71
2022/03/02 05:11:29;;;;;;;76.05;56.15;;;17.30;49.40;;;;;;4991496;28;90920;-71
2022/03/02 05:13:55;;;;;;;72.05;53.92;;;17.40;49.50;;;;;;4987665;28;91020;-71
2022/03/02 05:16:21;;;;;;;76.05;56.17;;;17.50;49.50;;;;;;4982877;28;90916;-71
2022/03/02 05:18:46;;;;;;;72.82;54.25;;;17.50;49.30;;;;;;4982516;28;90370;-71
2022/03/02 05:21:12;;;;;;;73.10;54.45;;;17.60;49.30;;;;;;4992215;28;90915;-72
2022/03/02 05:23:38;;;;;;;73.15;53.97;;;17.60;49.30;;;;;;4984773;28;97321;-71
2022/03/02 05:26:03;;;;;;;75.57;56.05;;;17.70;49.20;;;;;;4986877;28;89562;-71
2022/03/02 05:28:29;;;;;;;74.07;54.78;;;17.70;49.10;;;;;;4994698;28;95643;-71
2022/03/02 05:30:55;;;;;;;73.85;55.33;;;17.70;49.10;;;;;;4984955;28;92266;-71
2022/03/02 05:33:20;;;;;;;73.10;54.42;;;17.80;49.00;;;;;;4995944;28;90608;-71
2022/03/02 05:35:46;;;;;;;72.80;54.65;;;17.80;49.00;;;;;;4984672;28;89796;-71
2022/03/02 05:38:11;;;;;;;73.43;54.65;;;17.90;48.90;;;;;;4987117;28;90740;-71
2022/03/02 05:40:37;;;;;;;74.05;55.78;;;17.90;48.90;;;;;;4986781;28;91202;-71
2022/03/02 05:43:02;;;;;;;75.70;56.00;;;18.00;48.90;;;;;;4987105;28;90729;-73
2022/03/02 05:45:28;;;;;;;74.65;55.30;;;18.00;48.70;;;;;;4989629;28;91890;-71
2022/03/02 05:47:54;;;;;;;74.45;54.88;;;18.10;48.70;;;;;;4989560;28;90568;-72
2022/03/02 05:50:19;;;;;;;75.60;54.80;;;18.10;48.60;;;;;;4988879;28;92207;-71
2022/03/02 05:52:45;;;;;;;74.07;54.75;;;18.10;49.00;;;;;;4987010;28;89950;-72
2022/03/02 05:55:11;;;;;;;75.20;56.50;;;18.20;48.50;;;;;;4983272;28;90575;-71
2022/03/02 05:57:36;;;;;;;77.25;56.72;;;18.20;48.40;;;;;;4987626;28;89341;-72
2022/03/02 06:00:05;;;;;;;75.63;55.58;;;18.20;48.50;;;;;;4982598;28;90409;-71
2022/03/02 06:02:30;;;;;;;75.25;55.88;;;18.30;48.40;;;;;;4984615;28;89882;-71
2022/03/02 06:04:56;;;;;;;76.32;56.05;;;18.30;48.30;;;;;;4993429;28;91959;-71
2022/03/02 06:07:22;;;;;;;76.63;56.17;;;18.30;48.30;;;;;;4985806;28;90346;-71
2022/03/02 06:09:49;;;;;;;74.55;55.42;;;18.30;48.30;;;;;;4988582;28;90560;-71
2022/03/02 06:12:15;;;;;;;72.70;54.33;;;18.40;48.10;;;;;;4980287;28;90998;-71
2022/03/02 06:14:41;;;;;;;73.57;55.45;;;18.40;48.10;;;;;;4988815;28;91675;-71
2022/03/02 06:17:09;;;;;;;74.65;55.42;;;18.40;48.10;;;;;;4990365;28;90541;-71
2022/03/02 06:19:35;;;;;;;73.82;54.78;;;18.40;48.10;;;;;;4989559;28;90485;-71
2022/03/02 06:22:02;;;;;;;77.03;56.75;;;18.40;48.00;;;;;;4990415;28;90875;-72
2022/03/02 06:24:29;;;;;;;77.03;56.25;;;18.50;48.00;;;;;;4987274;28;89886;-72
2022/03/02 06:26:55;;;;;;;75.25;55.33;;;18.50;48.00;;;;;;4983765;28;89888;-72
2022/03/02 06:29:21;;;;;;;74.20;56.05;;;18.60;48.00;;;;;;4994778;27;94469;-72
2022/03/02 06:31:46;;;;;;;74.15;54.90;;;18.60;48.00;;;;;;4981048;28;90818;-71
2022/03/02 06:34:12;;;;;;;73.50;55.05;;;18.60;47.90;;;;;;4985783;28;90685;-76
2022/03/02 06:36:38;;;;;;;74.07;55.20;;;18.60;47.80;;;;;;4986512;28;90331;-78
2022/03/02 06:39:04;;;;;;;77.85;56.60;;;18.70;47.90;;;;;;4982738;28;89471;-77
2022/03/02 06:41:36;;;;;;;74.45;54.95;;;18.70;48.30;;;;;;4981654;28;89690;-75
2022/03/02 06:44:10;;;;;;;76.90;56.63;;;18.70;48.20;;;;;;4979685;28;90088;-75
2022/03/02 06:46:47;;;;;;;75.22;56.58;;;18.80;48.00;;;;;;4989398;27;89813;-77
2022/03/02 06:49:18;;;;;;;76.13;56.05;;;18.80;48.00;;;;;;4989428;28;89569;-74
2022/03/02 06:51:47;;;;;;;74.72;54.65;;;18.80;47.80;;;;;;4990470;28;90198;-73
2022/03/02 06:54:18;;;;;;;79.07;55.47;;;18.90;47.80;;;;;;4967235;28;92914;-73
2022/03/02 06:56:50;;;;;;;75.85;55.53;;;18.90;47.90;;;;;;4974817;28;90015;-75
2022/03/02 06:59:29;;;;;;;78.70;56.40;;;19.00;48.20;;;;;;4982324;28;90683;-79
2022/03/02 07:02:00;;;;;;;75.82;55.03;;;19.00;48.40;;;;;;4989297;28;91316;-77
2022/03/02 07:04:27;;;;;;;75.38;54.63;;;19.10;48.70;;;;;;4989659;28;91418;-78
2022/03/02 07:06:55;;;;;;;83.15;56.45;;;19.10;48.70;;;;;;4961897;28;91410;-73
2022/03/02 07:09:23;;;;;;;81.72;54.90;;;19.20;49.00;;;;;;4952009;28;91651;-75
2022/03/02 07:11:49;;;;;;;79.13;54.42;;;19.30;49.00;;;;;;4972128;27;92637;-74
2022/03/02 07:14:16;;;;;;;78.30;54.83;;;19.40;48.90;;;;;;4954589;28;90452;-76
2022/03/02 07:16:43;;;;;;;82.63;54.80;;;19.50;48.70;;;;;;4952868;28;90218;-76
2022/03/02 07:19:09;;;;;;;94.28;56.30;;;19.60;48.70;;;;;;4951859;28;95313;-74
2022/03/02 07:21:37;;;;;;;78.40;54.67;;;19.70;48.70;;;;;;4962194;28;92172;-75
2022/03/02 07:24:14;;;;;;;85.38;56.35;;;19.80;48.60;;;;;;4958628;28;90432;-76
2022/03/02 07:26:51;;;;;;;84.38;55.58;;;19.90;48.40;;;;;;4952044;28;91407;-75
2022/03/02 07:29:19;;;;;;;83.50;55.33;;;19.90;48.40;;;;;;4965010;28;90126;-74
2022/03/02 07:31:46;;;;;;;82.13;54.65;;;20.10;48.20;;;;;;4955218;28;91566;-77
2022/03/02 07:34:14;;;;;;;80.28;55.17;;;20.10;48.20;;;;;;4948407;28;91724;-75
2022/03/02 07:36:41;;;;;;;80.47;55.22;;;20.20;48.20;;;;;;4951860;28;89479;-76
2022/03/02 07:39:09;;;;;;;80.82;55.75;;;20.20;48.10;;;;;;4946911;28;89960;-74
2022/03/02 07:41:35;;;;;;;78.70;55.20;;;20.30;48.00;;;;;;4952894;28;92263;-73
2022/03/02 07:44:02;;;;;;;80.32;55.85;;;20.40;47.90;;;;;;4944768;28;91730;-74
2022/03/02 07:46:29;;;;;;;82.70;56.17;;;20.40;47.80;;;;;;4961435;28;92111;-76
2022/03/02 07:48:56;;;;;;;82.55;56.53;;;20.50;47.70;;;;;;4954385;28;89999;-72
2022/03/02 07:51:23;;;;;;;84.00;56.63;;;20.50;47.60;;;;;;4953324;28;93017;-72
2022/03/02 07:53:51;;;;;;;86.43;56.80;;;20.50;47.10;;;;;;4948150;28;91430;-74
2022/03/02 07:56:18;;;;;;;83.20;57.35;;;20.50;46.90;;;;;;4958810;28;90272;-73
2022/03/02 07:58:45;;;;;;;85.18;56.75;;;20.60;47.10;;;;;;4956947;28;91493;-72
2022/03/02 08:01:18;;;;;;;87.32;57.00;;;20.60;47.20;;;;;;4958451;28;90344;-73
2022/03/02 08:03:44;;;;;;;81.90;56.60;;;20.60;47.30;;;;;;4945804;28;92110;-74
2022/03/02 08:06:11;;;;;;;80.50;56.65;;;20.60;47.40;;;;;;4957155;28;91898;-72
2022/03/02 08:08:38;;;;;;;79.10;56.05;;;20.60;47.40;;;;;;4953578;28;91616;-72
2022/03/02 08:11:04;;;;;;;80.38;56.35;;;20.70;47.80;;;;;;4961193;28;89900;-75
2022/03/02 08:13:32;;;;;;;80.68;56.65;;;20.60;47.40;;;;;;4958135;28;90362;-74
2022/03/02 08:15:58;;;;;;;83.43;56.85;;;20.70;47.40;;;;;;4961585;28;90896;-74
2022/03/02 08:18:24;;;;;;;82.53;57.47;;;20.70;47.40;;;;;;4946153;28;92027;-73
2022/03/02 08:20:52;;;;;;;81.28;56.70;;;20.70;47.20;;;;;;4955153;28;90070;-74
2022/03/02 08:23:20;;;;;;;80.97;56.28;;;20.70;47.20;;;;;;4953534;28;90674;-74
2022/03/02 08:25:53;;;;;;;79.68;56.63;;;20.70;47.10;;;;;;4964108;28;89091;-75
2022/03/02 08:28:21;;;;;;;80.65;56.20;;;20.70;47.00;;;;;;4955021;28;90831;-74
2022/03/02 08:30:50;;;;;;;81.53;56.75;;;20.70;47.40;;;;;;4955830;28;90506;-74
2022/03/02 08:33:27;;;;;;;81.20;57.95;;;20.70;46.70;;;;;;4959497;28;95609;-74
2022/03/02 08:35:53;;;;;;;82.53;57.28;;;20.60;46.60;;;;;;4958552;28;90960;-73
2022/03/02 08:38:19;;;;;;;80.07;55.47;;;20.60;46.50;;;;;;4944683;28;92124;-74
2022/03/02 08:40:45;;;;;;;79.57;56.40;;;20.70;47.00;;;;;;4943483;28;94016;-74
2022/03/02 08:43:15;;;;;;;79.47;55.65;;;20.60;46.60;;;;;;4948712;28;90941;-75
2022/03/02 08:45:45;;;;;;;80.13;55.65;;;20.60;46.60;;;;;;4942818;28;92245;-75
2022/03/02 08:48:17;;;;;;;81.63;56.10;;;20.70;46.70;;;;;;4944033;27;91335;-74
2022/03/02 08:50:44;;;;;;;80.85;55.72;;;20.60;46.70;;;;;;4954208;28;90065;-74
2022/03/02 08:53:15;;;;;;;79.47;55.63;;;20.60;46.80;;;;;;4987771;28;90518;-74
2022/03/02 08:55:42;;;;;;;;;;;20.60;46.80;;;;;;4972722;28;92150;-74
2022/03/02 08:58:08;;;;;;;80.43;55.78;;;20.60;46.70;;;;;;4991021;28;90925;-74
2022/03/02 09:00:34;;;;;;;80.57;56.63;;;20.60;46.90;;;;;;4976430;28;90420;-74
2022/03/02 09:03:02;;;;;;;84.53;56.33;;;20.60;46.90;;;;;;4980385;28;89579;-73
2022/03/02 09:05:28;;;;;;;85.63;56.78;;;20.60;47.00;;;;;;4988666;28;91262;-73
2022/03/02 09:07:55;;;;;;;79.63;56.30;;;20.60;47.10;;;;;;4954466;28;92049;-73
2022/03/02 09:10:20;;;;;;;86.13;56.75;;;20.60;47.10;;;;;;4951891;28;91994;-73
2022/03/02 09:12:46;;;;;;;81.05;55.67;;;20.60;47.20;;;;;;4951903;28;91106;-74
2022/03/02 09:15:12;;;;;;;81.20;55.83;;;20.60;47.20;;;;;;4945480;28;92855;-74
2022/03/02 09:17:38;;;;;;;81.65;56.47;;;20.60;47.20;;;;;;4948910;28;91448;-74
2022/03/02 09:20:05;;;;;;;81.88;55.95;;;20.60;47.40;;;;;;4943380;28;92963;-72
2022/03/02 09:22:32;;;;;;;81.15;56.13;;;20.60;47.40;;;;;;4946238;28;92005;-74
2022/03/02 09:24:58;;;;;;;82.38;55.97;;;20.60;47.40;;;;;;4941965;28;91030;-73
2022/03/02 09:27:27;;;;;;;79.90;55.60;;;20.60;47.40;;;;;;4947391;28;93198;-73
2022/03/02 09:29:56;;;;;;;82.82;56.67;;;20.60;47.40;;;;;;4945009;28;91546;-73
2022/03/02 09:32:23;;;;;;;81.35;57.22;;;20.60;47.20;;;;;;4952834;28;91308;-71
2022/03/02 09:34:53;;;;;;;83.35;56.85;;;20.60;46.80;;;;;;4951800;28;90850;-72
2022/03/02 09:37:23;;;;;;;81.45;56.10;;;20.60;46.80;;;;;;4962262;28;94175;-72
2022/03/02 09:39:50;;;;;;;80.57;56.60;;;20.60;47.50;;;;;;4947121;28;90271;-72
2022/03/02 09:42:26;;;;;;;79.57;56.08;;;20.60;47.10;;;;;;4968629;28;93511;-73
2022/03/02 09:45:00;;;;;;;80.57;55.47;;;20.60;47.00;;;;;;4943311;28;90468;-73
2022/03/02 09:47:43;;;;;;;79.45;55.75;;;20.50;47.20;;;;;;4954361;28;92026;-72
2022/03/02 09:50:12;;;;;;;80.97;55.53;;;20.60;47.20;;;;;;4942828;28;91138;-73
2022/03/02 09:52:41;;;;;;;79.97;55.70;;;20.50;47.40;;;;;;4946688;28;91146;-75
2022/03/02 09:55:12;;;;;;;81.80;56.13;;;20.60;47.30;;;;;;4956962;28;89685;-75
2022/03/02 09:57:43;;;;;;;78.80;55.57;;;20.50;47.30;;;;;;4951996;28;94048;-74
2022/03/02 10:00:12;;;;;;;81.55;55.80;;;20.60;47.40;;;;;;4946492;28;92599;-74
2022/03/02 10:02:41;;;;;;;78.43;55.50;;;20.60;47.40;;;;;;4950963;28;93422;-73
2022/03/02 10:05:16;;;;;;;80.28;55.58;;;20.50;47.60;;;;;;4963298;28;89153;-74
2022/03/02 10:07:47;;;;;;;83.40;56.15;;;20.60;47.50;;;;;;4940858;28;93801;-74
2022/03/02 10:10:17;;;;;;;81.63;56.03;;;20.60;47.20;;;;;;4950571;28;91168;-73
2022/03/02 10:12:43;;;;;;;81.60;55.90;;;20.60;47.40;;;;;;4956350;28;91062;-72
2022/03/02 10:15:12;;;;;;;86.00;56.40;;;20.50;47.10;;;;;;4961628;28;94891;-73
2022/03/02 10:17:41;;;;;;;80.78;56.20;;;20.50;47.00;;;;;;4956347;28;90508;-74
2022/03/02 10:20:15;;;;;;;79.10;56.08;;;20.60;47.20;;;;;;4957142;28;91019;-73
2022/03/02 10:22:47;;;;;;;80.30;56.72;;;20.50;47.20;;;;;;4957316;28;91149;-76
2022/03/02 10:25:15;;;;;;;79.45;56.67;;;20.50;47.20;;;;;;4964598;28;91356;-75
2022/03/02 10:28:04;;;;;;;80.55;56.00;;;20.60;47.40;;;;;;4961119;28;90067;-74
2022/03/02 10:30:38;;;;;;;80.00;56.15;;;20.60;47.50;;;;;;4957472;28;90475;-74
2022/03/02 10:33:20;;;;;;;83.00;56.35;;;20.70;47.60;;;;;;4958612;28;90811;-74
2022/03/02 10:36:07;;;;;;;81.72;55.33;;;20.70;47.90;;;;;;4952790;28;92043;-77
2022/03/02 10:38:39;;;;;;;79.80;55.63;;;20.80;49.20;;;;;;4949592;28;91124;-74
2022/03/02 10:41:08;;;;;;;82.90;55.58;;;20.80;47.60;;;;;;4951448;28;90735;-74
2022/03/02 10:43:59;;;;;;;84.57;56.03;;;20.90;47.70;;;;;;4946896;28;90361;-74
2022/03/02 10:46:26;;;;;;;81.03;56.43;;;20.90;47.60;;;;;;4949392;27;91767;-74
2022/03/02 10:49:07;;;;;;;82.15;55.70;;;21.00;47.60;;;;;;4949779;28;91665;-74
2022/03/02 10:51:34;;;;;;;;;;;21.10;47.60;;;;;;4945292;28;92502;-73
2022/03/02 10:54:05;;;;;;;85.43;56.35;;;21.10;47.40;;;;;;4962712;28;91040;-74
2022/03/02 10:56:38;;;;;;;;;;;21.10;47.20;;;;;;4970145;27;88913;-73
2022/03/02 10:59:06;;;;;;;81.03;56.53;;;21.10;47.10;;;;;;4957352;28;92251;-74
2022/03/02 11:01:32;;;;;;;81.68;56.45;;;21.20;47.10;;;;;;4961371;28;90113;-73
2022/03/02 11:03:58;;;;;;;81.38;56.25;;;21.20;47.10;;;;;;4942061;28;93653;-74
2022/03/02 11:06:25;;;;;;;82.50;56.83;;;21.20;47.70;;;;;;4953084;28;92338;-73
2022/03/02 11:08:54;;;;;;;84.00;56.83;;;21.20;47.00;;;;;;4938646;28;91145;-76
2022/03/02 11:11:24;;;;;;;83.40;58.05;;;21.20;46.60;;;;;;4954873;28;90289;-74
2022/03/02 11:13:51;;;;;;;82.18;57.67;;;21.30;46.60;;;;;;4962022;28;90510;-76
2022/03/02 11:16:22;;;;;;;84.50;58.72;;;21.30;46.30;;;;;;4959115;28;91394;-74
2022/03/02 11:18:50;;;;;;;85.13;58.75;;;21.30;45.90;;;;;;4964865;28;95812;-73
2022/03/02 11:21:28;;;;;;;85.50;58.33;;;21.30;45.70;;;;;;4959945;28;90818;-72
2022/03/02 11:23:56;;;;;;;85.00;58.95;;;21.30;45.10;;;;;;4965060;28;92301;-72
2022/03/02 11:26:24;;;;;;;85.32;58.67;;;21.20;44.90;;;;;;4957007;28;89956;-73
2022/03/02 11:28:57;;;;;;;82.57;58.45;;;21.30;44.90;;;;;;4964685;28;92724;-72
2022/03/02 11:31:32;;;;;;;83.57;58.95;;;21.20;44.80;;;;;;4961169;28;93762;-72
2022/03/02 11:34:16;;;;;;;82.95;58.75;;;21.20;44.70;;;;;;4958510;28;90790;-74
2022/03/02 11:36:49;;;;;;;85.95;58.80;;;21.20;45.00;;;;;;4958208;28;90180;-73
2022/03/02 11:39:17;;;;;;;84.50;58.70;;;21.30;45.10;;;;;;4962155;28;90814;-73
2022/03/02 11:41:45;;;;;;;84.47;58.70;;;21.30;45.40;;;;;;4966178;28;92421;-74
2022/03/02 11:44:29;;;;;;;87.72;58.15;;;21.30;45.50;;;;;;4960016;28;90040;-73
2022/03/02 11:47:11;;;;;;;84.80;58.60;;;21.30;45.60;;;;;;4962655;28;90995;-74
2022/03/02 11:49:53;;;;;;;82.97;58.10;;;21.20;45.60;;;;;;4968143;28;90362;-75
2022/03/02 11:52:26;;;;;;;87.82;58.42;;;21.20;46.10;;;;;;4961716;28;91199;-72
2022/03/02 11:54:56;;;;;;;85.95;58.33;;;21.30;45.70;;;;;;4961091;28;92809;-74
2022/03/02 11:57:24;;;;;;;84.82;57.97;;;21.20;45.80;;;;;;4962294;28;92663;-74
2022/03/02 12:00:09;;;;;;;85.65;57.83;;;21.20;46.00;;;;;;4957424;28;92349;-73
2022/03/02 12:02:47;;;;;;;84.80;58.58;;;21.20;46.10;;;;;;4961840;28;90953;-74
2022/03/02 12:05:14;;;;;;;85.35;57.72;;;21.20;46.30;;;;;;4961730;27;92289;-73
2022/03/02 12:07:49;;;;;;;86.85;57.50;;;21.20;46.30;;;;;;4957852;28;90030;-73
2022/03/02 12:10:18;;;;;;;82.55;57.42;;;21.20;46.50;;;;;;4959269;28;92077;-73
2022/03/02 12:12:44;;;;;;;86.00;57.60;;;21.20;47.10;;;;;;4964605;28;89828;-74
2022/03/02 12:15:10;;;;;;;84.25;57.10;;;21.20;46.60;;;;;;4952716;28;90869;-74
2022/03/02 12:17:36;;;;;;;83.68;57.33;;;21.20;46.60;;;;;;4961269;28;91306;-73
2022/03/02 12:20:08;;;;;;;87.53;57.72;;;21.20;46.90;;;;;;4961944;28;92506;-73
2022/03/02 12:22:36;;;;;;;86.10;57.55;;;21.20;46.90;;;;;;4954509;28;91063;-74
2022/03/02 12:25:03;;;;;;;82.28;57.47;;;21.20;46.90;;;;;;4954343;28;91852;-73
2022/03/02 12:27:29;;;;;;;88.13;57.30;;;21.20;46.80;;;;;;4954691;28;90946;-74
2022/03/02 12:30:04;;;;;;;86.50;57.50;;;21.20;47.30;;;;;;4964676;28;91373;-73
2022/03/02 12:32:32;;;;;;;83.57;57.63;;;21.30;46.80;;;;;;4948520;28;90122;-73